sensor_id;sensor_type;location;lat;lon;timestamp;P1;durP1;ratioP1;P2;durP2;ratioP2
18435;SDS011;9346;52.006;4.720;2023-02-08T00:00:11;16.63;;;9.10;;
18435;SDS011;9346;52.006;4.720;2023-02-08T00:02:40;19.43;;;9.77;;
18435;SDS011;9346;52.006;4.720;2023-02-08T00:05:08;21.03;;;9.23;;
18435;SDS011;9346;52.006;4.720;2023-02-08T00:07:35;20.37;;;8.77;;
18435;SDS011;9346;52.006;4.720;2023-02-08T00:53:47;23.40;;;9.83;;
18435;SDS011;9346;52.006;4.720;2023-02-08T00:56:14;17.70;;;7.93;;
18435;SDS011;9346;52.006;4.720;2023-02-08T00:58:42;18.80;;;8.60;;
18435;SDS011;9346;52.006;4.720;2023-02-08T01:01:09;17.03;;;8.03;;
18435;SDS011;9346;52.006;4.720;2023-02-08T01:03:37;18.70;;;7.93;;
18435;SDS011;9346;52.006;4.720;2023-02-08T01:06:06;16.90;;;9.23;;
18435;SDS011;9346;52.006;4.720;2023-02-08T01:08:35;16.00;;;9.30;;
18435;SDS011;9346;52.006;4.720;2023-02-08T01:11:06;18.07;;;8.20;;
18435;SDS011;9346;52.006;4.720;2023-02-08T01:13:34;15.70;;;8.93;;
18435;SDS011;9346;52.006;4.720;2023-02-08T01:16:06;32.47;;;9.73;;
18435;SDS011;9346;52.006;4.720;2023-02-08T01:18:34;12.97;;;7.40;;
18435;SDS011;9346;52.006;4.720;2023-02-08T01:21:05;12.13;;;7.67;;
18435;SDS011;9346;52.006;4.720;2023-02-08T01:23:33;13.10;;;7.77;;
18435;SDS011;9346;52.006;4.720;2023-02-08T01:26:02;17.67;;;10.10;;
18435;SDS011;9346;52.006;4.720;2023-02-08T01:28:31;14.47;;;8.30;;
18435;SDS011;9346;52.006;4.720;2023-02-08T01:30:59;16.33;;;8.40;;
18435;SDS011;9346;52.006;4.720;2023-02-08T01:33:31;17.47;;;8.83;;
18435;SDS011;9346;52.006;4.720;2023-02-08T01:35:58;17.23;;;9.10;;
18435;SDS011;9346;52.006;4.720;2023-02-08T01:38:25;16.37;;;9.37;;
18435;SDS011;9346;52.006;4.720;2023-02-08T01:40:52;13.70;;;7.10;;
18435;SDS011;9346;52.006;4.720;2023-02-08T01:43:19;18.30;;;9.00;;
18435;SDS011;9346;52.006;4.720;2023-02-08T01:45:52;13.77;;;7.67;;
18435;SDS011;9346;52.006;4.720;2023-02-08T01:48:21;16.63;;;8.67;;
18435;SDS011;9346;52.006;4.720;2023-02-08T01:50:51;17.80;;;7.53;;
18435;SDS011;9346;52.006;4.720;2023-02-08T01:53:21;12.53;;;7.10;;
18435;SDS011;9346;52.006;4.720;2023-02-08T01:55:50;14.73;;;7.40;;
18435;SDS011;9346;52.006;4.720;2023-02-08T01:58:21;17.57;;;8.10;;
18435;SDS011;9346;52.006;4.720;2023-02-08T02:00:52;16.33;;;8.83;;
18435;SDS011;9346;52.006;4.720;2023-02-08T02:03:20;14.30;;;7.63;;
18435;SDS011;9346;52.006;4.720;2023-02-08T02:05:50;18.93;;;8.63;;
18435;SDS011;9346;52.006;4.720;2023-02-08T02:08:21;15.30;;;8.13;;
18435;SDS011;9346;52.006;4.720;2023-02-08T02:10:48;20.77;;;8.77;;
18435;SDS011;9346;52.006;4.720;2023-02-08T02:13:16;16.90;;;7.90;;
18435;SDS011;9346;52.006;4.720;2023-02-08T02:15:46;15.90;;;8.53;;
18435;SDS011;9346;52.006;4.720;2023-02-08T02:18:17;16.00;;;8.97;;
18435;SDS011;9346;52.006;4.720;2023-02-08T02:20:55;20.23;;;9.87;;
18435;SDS011;9346;52.006;4.720;2023-02-08T02:23:55;26.47;;;9.70;;
18435;SDS011;9346;52.006;4.720;2023-02-08T02:26:52;16.53;;;9.07;;
18435;SDS011;9346;52.006;4.720;2023-02-08T02:29:38;14.10;;;8.37;;
18435;SDS011;9346;52.006;4.720;2023-02-08T02:32:26;14.67;;;7.47;;
18435;SDS011;9346;52.006;4.720;2023-02-08T02:35:07;14.27;;;7.97;;
18435;SDS011;9346;52.006;4.720;2023-02-08T02:37:44;14.00;;;8.87;;
18435;SDS011;9346;52.006;4.720;2023-02-08T02:40:19;14.20;;;8.07;;
18435;SDS011;9346;52.006;4.720;2023-02-08T02:42:55;18.90;;;8.23;;
18435;SDS011;9346;52.006;4.720;2023-02-08T02:45:48;20.13;;;8.40;;
18435;SDS011;9346;52.006;4.720;2023-02-08T02:48:25;18.67;;;8.63;;
18435;SDS011;9346;52.006;4.720;2023-02-08T02:50:59;15.03;;;8.30;;
18435;SDS011;9346;52.006;4.720;2023-02-08T02:53:35;14.03;;;8.83;;
18435;SDS011;9346;52.006;4.720;2023-02-08T02:56:08;13.60;;;8.57;;
18435;SDS011;9346;52.006;4.720;2023-02-08T02:58:39;13.87;;;8.17;;
18435;SDS011;9346;52.006;4.720;2023-02-08T03:01:07;11.33;;;6.43;;
18435;SDS011;9346;52.006;4.720;2023-02-08T03:03:36;12.40;;;7.97;;
18435;SDS011;9346;52.006;4.720;2023-02-08T03:06:05;16.30;;;8.87;;
18435;SDS011;9346;52.006;4.720;2023-02-08T03:08:45;13.30;;;8.07;;
18435;SDS011;9346;52.006;4.720;2023-02-08T03:11:21;16.80;;;7.63;;
18435;SDS011;9346;52.006;4.720;2023-02-08T03:13:57;12.43;;;7.40;;
18435;SDS011;9346;52.006;4.720;2023-02-08T03:16:31;15.77;;;8.03;;
18435;SDS011;9346;52.006;4.720;2023-02-08T03:19:07;12.67;;;7.57;;
18435;SDS011;9346;52.006;4.720;2023-02-08T03:21:45;13.47;;;7.93;;
18435;SDS011;9346;52.006;4.720;2023-02-08T03:24:22;14.33;;;7.70;;
18435;SDS011;9346;52.006;4.720;2023-02-08T03:26:54;13.33;;;7.63;;
18435;SDS011;9346;52.006;4.720;2023-02-08T03:29:27;15.93;;;8.70;;
18435;SDS011;9346;52.006;4.720;2023-02-08T03:32:07;13.80;;;7.87;;
18435;SDS011;9346;52.006;4.720;2023-02-08T03:34:41;14.40;;;7.93;;
18435;SDS011;9346;52.006;4.720;2023-02-08T03:37:13;18.47;;;8.73;;
18435;SDS011;9346;52.006;4.720;2023-02-08T03:39:45;12.33;;;7.40;;
18435;SDS011;9346;52.006;4.720;2023-02-08T03:42:18;13.83;;;8.27;;
18435;SDS011;9346;52.006;4.720;2023-02-08T03:44:52;13.00;;;6.90;;
18435;SDS011;9346;52.006;4.720;2023-02-08T03:47:24;12.77;;;6.67;;
18435;SDS011;9346;52.006;4.720;2023-02-08T03:49:56;10.53;;;6.70;;
18435;SDS011;9346;52.006;4.720;2023-02-08T03:52:27;11.90;;;6.10;;
18435;SDS011;9346;52.006;4.720;2023-02-08T03:54:58;13.90;;;8.90;;
18435;SDS011;9346;52.006;4.720;2023-02-08T03:57:28;10.23;;;6.53;;
18435;SDS011;9346;52.006;4.720;2023-02-08T03:59:59;9.83;;;6.77;;
18435;SDS011;9346;52.006;4.720;2023-02-08T04:02:28;17.37;;;8.00;;
18435;SDS011;9346;52.006;4.720;2023-02-08T04:05:00;14.03;;;7.83;;
18435;SDS011;9346;52.006;4.720;2023-02-08T04:07:28;15.50;;;7.70;;
18435;SDS011;9346;52.006;4.720;2023-02-08T04:09:55;12.17;;;6.87;;
18435;SDS011;9346;52.006;4.720;2023-02-08T04:12:22;14.63;;;7.60;;
18435;SDS011;9346;52.006;4.720;2023-02-08T04:14:49;14.07;;;6.93;;
18435;SDS011;9346;52.006;4.720;2023-02-08T04:17:16;17.07;;;7.97;;
18435;SDS011;9346;52.006;4.720;2023-02-08T04:19:44;15.97;;;8.17;;
18435;SDS011;9346;52.006;4.720;2023-02-08T04:22:12;13.20;;;7.37;;
18435;SDS011;9346;52.006;4.720;2023-02-08T04:24:39;16.53;;;7.23;;
18435;SDS011;9346;52.006;4.720;2023-02-08T04:27:06;12.53;;;8.07;;
18435;SDS011;9346;52.006;4.720;2023-02-08T04:29:34;12.23;;;7.77;;
18435;SDS011;9346;52.006;4.720;2023-02-08T04:32:01;17.90;;;7.43;;
18435;SDS011;9346;52.006;4.720;2023-02-08T04:34:29;12.30;;;6.13;;
18435;SDS011;9346;52.006;4.720;2023-02-08T04:36:56;13.73;;;8.00;;
18435;SDS011;9346;52.006;4.720;2023-02-08T04:39:24;17.07;;;7.57;;
18435;SDS011;9346;52.006;4.720;2023-02-08T04:41:51;13.10;;;7.13;;
18435;SDS011;9346;52.006;4.720;2023-02-08T04:44:18;16.83;;;7.27;;
18435;SDS011;9346;52.006;4.720;2023-02-08T04:46:45;14.17;;;7.57;;
18435;SDS011;9346;52.006;4.720;2023-02-08T04:49:13;14.20;;;7.93;;
18435;SDS011;9346;52.006;4.720;2023-02-08T04:51:40;15.03;;;7.63;;
18435;SDS011;9346;52.006;4.720;2023-02-08T04:54:07;12.40;;;7.00;;
18435;SDS011;9346;52.006;4.720;2023-02-08T04:56:36;13.90;;;7.90;;
18435;SDS011;9346;52.006;4.720;2023-02-08T04:59:03;12.13;;;7.03;;
18435;SDS011;9346;52.006;4.720;2023-02-08T05:01:30;12.37;;;7.43;;
18435;SDS011;9346;52.006;4.720;2023-02-08T05:03:57;11.70;;;8.13;;
18435;SDS011;9346;52.006;4.720;2023-02-08T05:06:24;10.63;;;7.10;;
18435;SDS011;9346;52.006;4.720;2023-02-08T05:08:51;12.90;;;7.90;;
18435;SDS011;9346;52.006;4.720;2023-02-08T05:11:19;12.73;;;7.17;;
18435;SDS011;9346;52.006;4.720;2023-02-08T05:13:47;12.40;;;6.97;;
18435;SDS011;9346;52.006;4.720;2023-02-08T05:16:14;15.30;;;7.87;;
18435;SDS011;9346;52.006;4.720;2023-02-08T05:18:41;20.10;;;9.07;;
18435;SDS011;9346;52.006;4.720;2023-02-08T05:21:09;12.03;;;7.30;;
18435;SDS011;9346;52.006;4.720;2023-02-08T05:23:36;13.30;;;5.90;;
18435;SDS011;9346;52.006;4.720;2023-02-08T05:26:04;12.43;;;6.77;;
18435;SDS011;9346;52.006;4.720;2023-02-08T05:28:32;13.07;;;7.33;;
18435;SDS011;9346;52.006;4.720;2023-02-08T05:31:00;12.43;;;7.03;;
18435;SDS011;9346;52.006;4.720;2023-02-08T05:33:34;8.93;;;5.93;;
18435;SDS011;9346;52.006;4.720;2023-02-08T05:36:01;12.13;;;6.87;;
18435;SDS011;9346;52.006;4.720;2023-02-08T05:38:29;9.30;;;5.50;;
18435;SDS011;9346;52.006;4.720;2023-02-08T05:40:56;15.17;;;7.57;;
18435;SDS011;9346;52.006;4.720;2023-02-08T05:43:23;12.93;;;6.47;;
18435;SDS011;9346;52.006;4.720;2023-02-08T05:45:50;12.90;;;7.17;;
18435;SDS011;9346;52.006;4.720;2023-02-08T05:48:18;12.77;;;6.87;;
18435;SDS011;9346;52.006;4.720;2023-02-08T05:50:46;10.87;;;6.73;;
18435;SDS011;9346;52.006;4.720;2023-02-08T05:53:14;10.57;;;4.77;;
18435;SDS011;9346;52.006;4.720;2023-02-08T05:55:42;10.47;;;6.30;;
18435;SDS011;9346;52.006;4.720;2023-02-08T05:58:10;12.10;;;7.77;;
18435;SDS011;9346;52.006;4.720;2023-02-08T06:00:37;20.10;;;7.70;;
18435;SDS011;9346;52.006;4.720;2023-02-08T06:03:04;12.43;;;6.97;;
18435;SDS011;9346;52.006;4.720;2023-02-08T06:05:35;8.20;;;6.43;;
18435;SDS011;9346;52.006;4.720;2023-02-08T06:08:04;10.03;;;6.43;;
18435;SDS011;9346;52.006;4.720;2023-02-08T06:10:31;9.37;;;5.60;;
18435;SDS011;9346;52.006;4.720;2023-02-08T06:12:58;9.33;;;6.97;;
18435;SDS011;9346;52.006;4.720;2023-02-08T06:15:26;12.60;;;6.00;;
18435;SDS011;9346;52.006;4.720;2023-02-08T06:17:53;16.17;;;7.50;;
18435;SDS011;9346;52.006;4.720;2023-02-08T06:20:20;14.83;;;6.30;;
18435;SDS011;9346;52.006;4.720;2023-02-08T06:22:49;12.33;;;6.77;;
18435;SDS011;9346;52.006;4.720;2023-02-08T06:25:16;15.73;;;7.20;;
18435;SDS011;9346;52.006;4.720;2023-02-08T06:27:44;10.97;;;5.20;;
18435;SDS011;9346;52.006;4.720;2023-02-08T06:30:11;13.10;;;6.37;;
18435;SDS011;9346;52.006;4.720;2023-02-08T06:32:39;9.80;;;5.70;;
18435;SDS011;9346;52.006;4.720;2023-02-08T06:35:06;12.23;;;7.10;;
18435;SDS011;9346;52.006;4.720;2023-02-08T06:37:35;15.07;;;7.93;;
18435;SDS011;9346;52.006;4.720;2023-02-08T06:40:04;11.83;;;6.33;;
18435;SDS011;9346;52.006;4.720;2023-02-08T06:42:31;10.97;;;7.03;;
18435;SDS011;9346;52.006;4.720;2023-02-08T06:44:59;14.03;;;7.27;;
18435;SDS011;9346;52.006;4.720;2023-02-08T06:47:26;7.73;;;5.93;;
18435;SDS011;9346;52.006;4.720;2023-02-08T06:49:54;9.40;;;5.13;;
18435;SDS011;9346;52.006;4.720;2023-02-08T06:52:21;8.37;;;5.40;;
18435;SDS011;9346;52.006;4.720;2023-02-08T06:54:47;11.27;;;6.67;;
18435;SDS011;9346;52.006;4.720;2023-02-08T06:57:16;7.37;;;5.03;;
18435;SDS011;9346;52.006;4.720;2023-02-08T06:59:43;10.13;;;5.67;;
18435;SDS011;9346;52.006;4.720;2023-02-08T07:02:11;10.97;;;6.43;;
18435;SDS011;9346;52.006;4.720;2023-02-08T07:04:40;19.83;;;6.53;;
18435;SDS011;9346;52.006;4.720;2023-02-08T07:07:08;10.43;;;5.53;;
18435;SDS011;9346;52.006;4.720;2023-02-08T07:09:34;10.40;;;5.47;;
18435;SDS011;9346;52.006;4.720;2023-02-08T07:12:02;9.17;;;5.47;;
18435;SDS011;9346;52.006;4.720;2023-02-08T07:14:31;11.20;;;5.93;;
18435;SDS011;9346;52.006;4.720;2023-02-08T07:16:59;15.57;;;7.70;;
18435;SDS011;9346;52.006;4.720;2023-02-08T07:19:26;12.30;;;6.13;;
18435;SDS011;9346;52.006;4.720;2023-02-08T07:21:54;10.03;;;6.00;;
18435;SDS011;9346;52.006;4.720;2023-02-08T07:24:27;9.93;;;6.30;;
18435;SDS011;9346;52.006;4.720;2023-02-08T07:26:53;10.60;;;6.33;;
18435;SDS011;9346;52.006;4.720;2023-02-08T07:29:20;14.20;;;6.87;;
18435;SDS011;9346;52.006;4.720;2023-02-08T07:31:49;12.47;;;7.70;;
18435;SDS011;9346;52.006;4.720;2023-02-08T07:34:16;12.47;;;6.77;;
18435;SDS011;9346;52.006;4.720;2023-02-08T07:36:45;10.40;;;6.63;;
18435;SDS011;9346;52.006;4.720;2023-02-08T07:39:12;10.10;;;6.73;;
18435;SDS011;9346;52.006;4.720;2023-02-08T07:41:40;9.13;;;6.33;;
18435;SDS011;9346;52.006;4.720;2023-02-08T07:44:07;8.87;;;6.33;;
18435;SDS011;9346;52.006;4.720;2023-02-08T07:46:35;9.73;;;6.13;;
18435;SDS011;9346;52.006;4.720;2023-02-08T07:49:03;13.87;;;5.60;;
18435;SDS011;9346;52.006;4.720;2023-02-08T07:51:31;8.53;;;5.07;;
18435;SDS011;9346;52.006;4.720;2023-02-08T07:53:58;8.27;;;5.47;;
18435;SDS011;9346;52.006;4.720;2023-02-08T07:56:25;11.33;;;6.37;;
18435;SDS011;9346;52.006;4.720;2023-02-08T07:58:52;8.43;;;5.30;;
18435;SDS011;9346;52.006;4.720;2023-02-08T08:01:19;21.00;;;5.87;;
18435;SDS011;9346;52.006;4.720;2023-02-08T08:03:46;13.03;;;6.63;;
18435;SDS011;9346;52.006;4.720;2023-02-08T08:06:15;12.97;;;6.97;;
18435;SDS011;9346;52.006;4.720;2023-02-08T08:08:42;9.00;;;6.17;;
18435;SDS011;9346;52.006;4.720;2023-02-08T08:11:11;12.40;;;7.83;;
18435;SDS011;9346;52.006;4.720;2023-02-08T08:13:40;15.20;;;6.00;;
18435;SDS011;9346;52.006;4.720;2023-02-08T08:16:07;11.27;;;6.57;;
18435;SDS011;9346;52.006;4.720;2023-02-08T08:18:34;14.07;;;6.63;;
18435;SDS011;9346;52.006;4.720;2023-02-08T08:21:01;19.33;;;7.33;;
18435;SDS011;9346;52.006;4.720;2023-02-08T08:23:30;13.33;;;6.43;;
18435;SDS011;9346;52.006;4.720;2023-02-08T08:26:04;11.03;;;6.27;;
18435;SDS011;9346;52.006;4.720;2023-02-08T08:28:32;11.27;;;6.73;;
18435;SDS011;9346;52.006;4.720;2023-02-08T08:30:59;19.93;;;7.30;;
18435;SDS011;9346;52.006;4.720;2023-02-08T08:33:26;10.70;;;5.63;;
18435;SDS011;9346;52.006;4.720;2023-02-08T08:35:53;11.47;;;6.40;;
18435;SDS011;9346;52.006;4.720;2023-02-08T08:38:20;10.00;;;7.07;;
18435;SDS011;9346;52.006;4.720;2023-02-08T08:40:49;13.37;;;6.83;;
18435;SDS011;9346;52.006;4.720;2023-02-08T08:43:16;15.53;;;7.73;;
18435;SDS011;9346;52.006;4.720;2023-02-08T08:45:43;19.50;;;9.63;;
18435;SDS011;9346;52.006;4.720;2023-02-08T08:48:11;10.33;;;6.40;;
18435;SDS011;9346;52.006;4.720;2023-02-08T08:50:38;11.70;;;6.97;;
18435;SDS011;9346;52.006;4.720;2023-02-08T08:53:07;13.10;;;7.10;;
18435;SDS011;9346;52.006;4.720;2023-02-08T08:55:33;13.20;;;7.57;;
18435;SDS011;9346;52.006;4.720;2023-02-08T08:58:02;10.83;;;7.17;;
18435;SDS011;9346;52.006;4.720;2023-02-08T09:00:29;20.20;;;9.23;;
18435;SDS011;9346;52.006;4.720;2023-02-08T09:02:56;12.47;;;7.63;;
18435;SDS011;9346;52.006;4.720;2023-02-08T09:05:23;12.40;;;7.43;;
18435;SDS011;9346;52.006;4.720;2023-02-08T09:07:50;11.90;;;7.40;;
18435;SDS011;9346;52.006;4.720;2023-02-08T09:10:17;26.07;;;9.03;;
18435;SDS011;9346;52.006;4.720;2023-02-08T09:12:44;10.33;;;6.10;;
18435;SDS011;9346;52.006;4.720;2023-02-08T09:15:14;16.27;;;8.83;;
18435;SDS011;9346;52.006;4.720;2023-02-08T09:17:42;17.10;;;8.37;;
18435;SDS011;9346;52.006;4.720;2023-02-08T09:20:10;10.37;;;6.97;;
18435;SDS011;9346;52.006;4.720;2023-02-08T09:22:37;16.53;;;8.97;;
18435;SDS011;9346;52.006;4.720;2023-02-08T09:25:05;16.30;;;7.10;;
18435;SDS011;9346;52.006;4.720;2023-02-08T09:27:33;14.63;;;8.13;;
18435;SDS011;9346;52.006;4.720;2023-02-08T09:30:01;13.43;;;8.10;;
18435;SDS011;9346;52.006;4.720;2023-02-08T09:32:31;16.87;;;8.43;;
18435;SDS011;9346;52.006;4.720;2023-02-08T09:35:00;16.20;;;7.97;;
18435;SDS011;9346;52.006;4.720;2023-02-08T09:37:29;11.63;;;6.87;;
18435;SDS011;9346;52.006;4.720;2023-02-08T09:39:56;16.03;;;7.63;;
18435;SDS011;9346;52.006;4.720;2023-02-08T09:42:34;23.93;;;7.57;;
18435;SDS011;9346;52.006;4.720;2023-02-08T09:45:20;15.37;;;8.33;;
18435;SDS011;9346;52.006;4.720;2023-02-08T09:47:59;12.13;;;7.13;;
18435;SDS011;9346;52.006;4.720;2023-02-08T09:50:33;16.43;;;8.43;;
18435;SDS011;9346;52.006;4.720;2023-02-08T09:53:05;11.67;;;7.23;;
18435;SDS011;9346;52.006;4.720;2023-02-08T09:55:38;12.53;;;7.63;;
18435;SDS011;9346;52.006;4.720;2023-02-08T09:58:12;14.20;;;7.33;;
18435;SDS011;9346;52.006;4.720;2023-02-08T10:00:46;13.77;;;8.10;;
18435;SDS011;9346;52.006;4.720;2023-02-08T10:03:20;12.07;;;7.10;;
18435;SDS011;9346;52.006;4.720;2023-02-08T10:05:53;13.17;;;7.47;;
18435;SDS011;9346;52.006;4.720;2023-02-08T10:08:20;11.70;;;7.50;;
18435;SDS011;9346;52.006;4.720;2023-02-08T10:10:50;18.13;;;7.43;;
18435;SDS011;9346;52.006;4.720;2023-02-08T10:13:31;12.97;;;8.17;;
18435;SDS011;9346;52.006;4.720;2023-02-08T10:16:11;13.33;;;8.03;;
18435;SDS011;9346;52.006;4.720;2023-02-08T10:18:51;14.20;;;7.33;;
18435;SDS011;9346;52.006;4.720;2023-02-08T10:21:33;13.93;;;7.43;;
18435;SDS011;9346;52.006;4.720;2023-02-08T10:24:13;15.80;;;7.27;;
18435;SDS011;9346;52.006;4.720;2023-02-08T10:26:59;13.57;;;6.80;;
18435;SDS011;9346;52.006;4.720;2023-02-08T10:29:40;17.20;;;7.67;;
18435;SDS011;9346;52.006;4.720;2023-02-08T10:32:26;12.47;;;6.30;;
18435;SDS011;9346;52.006;4.720;2023-02-08T10:35:10;15.60;;;6.73;;
18435;SDS011;9346;52.006;4.720;2023-02-08T10:37:39;16.47;;;8.47;;
18435;SDS011;9346;52.006;4.720;2023-02-08T10:42:52;11.40;;;6.33;;
18435;SDS011;9346;52.006;4.720;2023-02-08T10:45:24;12.83;;;7.83;;
18435;SDS011;9346;52.006;4.720;2023-02-08T10:47:55;15.90;;;7.60;;
18435;SDS011;9346;52.006;4.720;2023-02-08T10:50:30;17.17;;;7.73;;
18435;SDS011;9346;52.006;4.720;2023-02-08T10:53:01;17.20;;;7.60;;
18435;SDS011;9346;52.006;4.720;2023-02-08T10:55:29;14.00;;;7.67;;
18435;SDS011;9346;52.006;4.720;2023-02-08T10:57:57;17.70;;;7.50;;
18435;SDS011;9346;52.006;4.720;2023-02-08T11:00:27;13.17;;;7.23;;
18435;SDS011;9346;52.006;4.720;2023-02-08T11:02:57;13.73;;;7.43;;
18435;SDS011;9346;52.006;4.720;2023-02-08T11:05:34;10.87;;;7.23;;
18435;SDS011;9346;52.006;4.720;2023-02-08T11:08:06;14.77;;;7.33;;
18435;SDS011;9346;52.006;4.720;2023-02-08T11:10:34;14.93;;;7.63;;
18435;SDS011;9346;52.006;4.720;2023-02-08T11:13:03;14.73;;;7.70;;
18435;SDS011;9346;52.006;4.720;2023-02-08T11:15:42;13.03;;;6.97;;
18435;SDS011;9346;52.006;4.720;2023-02-08T11:18:15;15.93;;;7.53;;
18435;SDS011;9346;52.006;4.720;2023-02-08T11:20:48;10.93;;;6.73;;
18435;SDS011;9346;52.006;4.720;2023-02-08T11:23:22;14.77;;;7.30;;
18435;SDS011;9346;52.006;4.720;2023-02-08T11:25:51;13.03;;;6.47;;
18435;SDS011;9346;52.006;4.720;2023-02-08T11:28:24;10.00;;;6.43;;
18435;SDS011;9346;52.006;4.720;2023-02-08T11:30:56;11.77;;;6.20;;
18435;SDS011;9346;52.006;4.720;2023-02-08T11:33:25;12.50;;;7.27;;
18435;SDS011;9346;52.006;4.720;2023-02-08T11:38:40;16.40;;;7.00;;
18435;SDS011;9346;52.006;4.720;2023-02-08T11:41:13;12.93;;;7.03;;
18435;SDS011;9346;52.006;4.720;2023-02-08T11:43:43;12.63;;;7.20;;
18435;SDS011;9346;52.006;4.720;2023-02-08T11:46:23;11.00;;;6.80;;
18435;SDS011;9346;52.006;4.720;2023-02-08T11:48:52;14.00;;;6.37;;
18435;SDS011;9346;52.006;4.720;2023-02-08T11:51:29;11.50;;;6.80;;
18435;SDS011;9346;52.006;4.720;2023-02-08T11:53:58;12.43;;;7.40;;
18435;SDS011;9346;52.006;4.720;2023-02-08T11:56:27;12.70;;;7.00;;
18435;SDS011;9346;52.006;4.720;2023-02-08T11:58:57;10.70;;;6.23;;
18435;SDS011;9346;52.006;4.720;2023-02-08T12:01:29;16.47;;;6.87;;
18435;SDS011;9346;52.006;4.720;2023-02-08T12:03:59;10.47;;;6.53;;
18435;SDS011;9346;52.006;4.720;2023-02-08T12:12:41;10.97;;;6.17;;
18435;SDS011;9346;52.006;4.720;2023-02-08T12:15:21;17.40;;;7.00;;
18435;SDS011;9346;52.006;4.720;2023-02-08T12:18:00;16.73;;;6.13;;
18435;SDS011;9346;52.006;4.720;2023-02-08T12:20:38;10.57;;;5.40;;
18435;SDS011;9346;52.006;4.720;2023-02-08T12:29:28;10.63;;;5.90;;
18435;SDS011;9346;52.006;4.720;2023-02-08T12:34:59;16.73;;;6.60;;
18435;SDS011;9346;52.006;4.720;2023-02-08T12:37:40;9.30;;;5.53;;
18435;SDS011;9346;52.006;4.720;2023-02-08T12:40:31;7.83;;;5.23;;
18435;SDS011;9346;52.006;4.720;2023-02-08T12:43:22;10.67;;;6.30;;
18435;SDS011;9346;52.006;4.720;2023-02-08T12:46:11;9.37;;;6.13;;
18435;SDS011;9346;52.006;4.720;2023-02-08T12:48:58;15.07;;;6.13;;
18435;SDS011;9346;52.006;4.720;2023-02-08T12:51:42;11.47;;;6.43;;
18435;SDS011;9346;52.006;4.720;2023-02-08T12:54:17;13.63;;;6.60;;
18435;SDS011;9346;52.006;4.720;2023-02-08T12:56:56;10.93;;;6.40;;
18435;SDS011;9346;52.006;4.720;2023-02-08T12:59:27;11.40;;;6.20;;
18435;SDS011;9346;52.006;4.720;2023-02-08T13:02:01;11.43;;;6.13;;
18435;SDS011;9346;52.006;4.720;2023-02-08T13:04:40;15.47;;;6.47;;
18435;SDS011;9346;52.006;4.720;2023-02-08T13:07:13;9.70;;;6.50;;
18435;SDS011;9346;52.006;4.720;2023-02-08T13:09:47;12.70;;;7.13;;
18435;SDS011;9346;52.006;4.720;2023-02-08T13:12:22;10.77;;;4.90;;
18435;SDS011;9346;52.006;4.720;2023-02-08T13:14:54;10.97;;;6.73;;
18435;SDS011;9346;52.006;4.720;2023-02-08T13:17:38;13.20;;;6.33;;
18435;SDS011;9346;52.006;4.720;2023-02-08T13:20:15;12.83;;;6.93;;
18435;SDS011;9346;52.006;4.720;2023-02-08T13:22:53;14.47;;;6.50;;
18435;SDS011;9346;52.006;4.720;2023-02-08T13:25:28;12.80;;;5.80;;
18435;SDS011;9346;52.006;4.720;2023-02-08T13:28:00;9.03;;;5.47;;
18435;SDS011;9346;52.006;4.720;2023-02-08T13:30:28;13.07;;;6.27;;
18435;SDS011;9346;52.006;4.720;2023-02-08T13:32:58;12.73;;;6.47;;
18435;SDS011;9346;52.006;4.720;2023-02-08T13:35:33;11.33;;;5.53;;
18435;SDS011;9346;52.006;4.720;2023-02-08T13:38:17;13.37;;;6.70;;
18435;SDS011;9346;52.006;4.720;2023-02-08T13:41:00;8.97;;;5.27;;
18435;SDS011;9346;52.006;4.720;2023-02-08T13:43:35;14.50;;;6.23;;
18435;SDS011;9346;52.006;4.720;2023-02-08T13:46:05;12.77;;;5.80;;
18435;SDS011;9346;52.006;4.720;2023-02-08T13:54:27;10.50;;;5.57;;
18435;SDS011;9346;52.006;4.720;2023-02-08T13:56:54;11.27;;;6.03;;
18435;SDS011;9346;52.006;4.720;2023-02-08T13:59:28;9.87;;;5.40;;
18435;SDS011;9346;52.006;4.720;2023-02-08T14:04:50;10.30;;;5.53;;
18435;SDS011;9346;52.006;4.720;2023-02-08T14:07:20;8.10;;;5.00;;
18435;SDS011;9346;52.006;4.720;2023-02-08T14:13:02;7.37;;;4.63;;
18435;SDS011;9346;52.006;4.720;2023-02-08T14:15:35;8.40;;;5.13;;
18435;SDS011;9346;52.006;4.720;2023-02-08T14:18:16;11.03;;;5.93;;
18435;SDS011;9346;52.006;4.720;2023-02-08T14:20:57;10.00;;;5.17;;
18435;SDS011;9346;52.006;4.720;2023-02-08T14:23:36;10.33;;;6.10;;
18435;SDS011;9346;52.006;4.720;2023-02-08T14:26:06;7.33;;;4.53;;
18435;SDS011;9346;52.006;4.720;2023-02-08T14:28:35;9.00;;;4.87;;
18435;SDS011;9346;52.006;4.720;2023-02-08T14:31:06;10.50;;;6.07;;
18435;SDS011;9346;52.006;4.720;2023-02-08T14:33:36;11.50;;;5.73;;
18435;SDS011;9346;52.006;4.720;2023-02-08T14:36:20;12.57;;;6.10;;
18435;SDS011;9346;52.006;4.720;2023-02-08T14:39:03;11.20;;;5.20;;
18435;SDS011;9346;52.006;4.720;2023-02-08T14:41:49;13.97;;;6.70;;
18435;SDS011;9346;52.006;4.720;2023-02-08T14:50:31;10.80;;;6.00;;
18435;SDS011;9346;52.006;4.720;2023-02-08T14:53:23;11.63;;;5.47;;
18435;SDS011;9346;52.006;4.720;2023-02-08T14:55:54;10.07;;;5.00;;
18435;SDS011;9346;52.006;4.720;2023-02-08T14:58:27;10.77;;;5.67;;
18435;SDS011;9346;52.006;4.720;2023-02-08T15:00:59;9.20;;;5.20;;
18435;SDS011;9346;52.006;4.720;2023-02-08T15:03:29;12.80;;;5.47;;
18435;SDS011;9346;52.006;4.720;2023-02-08T15:08:55;12.30;;;5.60;;
18435;SDS011;9346;52.006;4.720;2023-02-08T15:11:24;12.03;;;6.07;;
18435;SDS011;9346;52.006;4.720;2023-02-08T15:13:57;10.43;;;6.53;;
18435;SDS011;9346;52.006;4.720;2023-02-08T15:16:31;17.37;;;5.50;;
18435;SDS011;9346;52.006;4.720;2023-02-08T15:19:01;11.47;;;5.13;;
18435;SDS011;9346;52.006;4.720;2023-02-08T15:21:30;11.57;;;5.33;;
18435;SDS011;9346;52.006;4.720;2023-02-08T15:24:03;11.50;;;5.57;;
18435;SDS011;9346;52.006;4.720;2023-02-08T15:26:42;9.97;;;5.87;;
18435;SDS011;9346;52.006;4.720;2023-02-08T15:29:16;9.00;;;4.90;;
18435;SDS011;9346;52.006;4.720;2023-02-08T15:31:44;7.87;;;5.00;;
18435;SDS011;9346;52.006;4.720;2023-02-08T15:34:12;8.60;;;6.00;;
18435;SDS011;9346;52.006;4.720;2023-02-08T15:36:39;11.80;;;5.87;;
18435;SDS011;9346;52.006;4.720;2023-02-08T15:39:18;10.47;;;5.43;;
18435;SDS011;9346;52.006;4.720;2023-02-08T15:41:56;13.17;;;5.27;;
18435;SDS011;9346;52.006;4.720;2023-02-08T15:44:25;7.67;;;4.97;;
18435;SDS011;9346;52.006;4.720;2023-02-08T15:46:55;12.87;;;5.50;;
18435;SDS011;9346;52.006;4.720;2023-02-08T15:49:27;12.07;;;5.00;;
18435;SDS011;9346;52.006;4.720;2023-02-08T15:51:57;13.73;;;5.47;;
18435;SDS011;9346;52.006;4.720;2023-02-08T15:54:30;9.40;;;5.07;;
18435;SDS011;9346;52.006;4.720;2023-02-08T15:56:58;9.20;;;6.00;;
18435;SDS011;9346;52.006;4.720;2023-02-08T15:59:31;11.47;;;6.13;;
18435;SDS011;9346;52.006;4.720;2023-02-08T16:02:01;10.33;;;6.07;;
18435;SDS011;9346;52.006;4.720;2023-02-08T16:04:40;16.00;;;6.40;;
18435;SDS011;9346;52.006;4.720;2023-02-08T16:07:12;14.07;;;6.33;;
18435;SDS011;9346;52.006;4.720;2023-02-08T16:09:50;11.10;;;6.23;;
18435;SDS011;9346;52.006;4.720;2023-02-08T16:12:18;12.90;;;6.03;;
18435;SDS011;9346;52.006;4.720;2023-02-08T16:14:47;10.97;;;5.43;;
18435;SDS011;9346;52.006;4.720;2023-02-08T16:20:01;11.87;;;5.37;;
18435;SDS011;9346;52.006;4.720;2023-02-08T16:22:29;10.83;;;6.57;;
18435;SDS011;9346;52.006;4.720;2023-02-08T16:27:49;10.03;;;5.70;;
18435;SDS011;9346;52.006;4.720;2023-02-08T16:30:17;11.67;;;6.93;;
18435;SDS011;9346;52.006;4.720;2023-02-08T16:32:46;14.63;;;6.23;;
18435;SDS011;9346;52.006;4.720;2023-02-08T16:35:14;11.40;;;6.17;;
18435;SDS011;9346;52.006;4.720;2023-02-08T16:37:52;9.33;;;5.50;;
18435;SDS011;9346;52.006;4.720;2023-02-08T16:40:41;13.17;;;6.40;;
18435;SDS011;9346;52.006;4.720;2023-02-08T16:43:16;11.13;;;7.07;;